• Join FlightAware (Why Join?)
  • Login
  • US Flag 
08:31PM EDT


 

Airport Tracker/Info


-or-


 

Live Flight TrackerFlight Track Log ✈ AAY805 ✈ 03-Jul-2014 ✈ KCHA - KPIE

Flight Track Log - Related Links

Times and Time Zones

All times are in EDT time to prevent confusion due to time zone crossing. See the AAY805 flight status page for this flight to view local times or setup timezone preferences in your user account.

Time Position Orientation Groundspeed Altitude Reporting Facility
EDT Latitude Longitude Course Direction KTS MPH feet Rate Location/Type
09:04AM 35.0147 -85.0911 158° South 294 338 7,600  Level Atlanta Center
09:05AM 34.9358 -85.0572 161° South 294 338 9,900 1,500 Climbing Atlanta Center
09:06AM 34.8547 -85.0183 159° South 299 344 10,700 1,860 Climbing Atlanta Center
09:08AM 34.4373 -84.8603 158° South  Level FlightAware Approximate
09:09AM 34.3345 -84.8089 158° South  Level FlightAware Approximate
09:12AM 34.2580 -84.7303 158° South 414 476 22,700  Level FlightAware ADS-B (KDZJ)
09:13AM 34.1847 -84.6957 158° South 417 480 23,900 1,500 Climbing FlightAware ADS-B (KDZJ)
09:13AM 34.1115 -84.6611 159° South 432 497 24,700 1,380 Climbing FlightAware ADS-B (KDZJ)
09:14AM 34.0355 -84.6252 159° South 433 498 25,800 1,320 Climbing FlightAware ADS-B (KDZJ)
09:16AM 33.7933 -84.5139 148° Southeast 432 497 28,600 1,080 Climbing Atlanta Center
09:17AM 33.6725 -84.4581 159° South 445 512 29,400 780 Climbing Atlanta Center
09:18AM 33.5619 -84.3853 151° Southeast 452 520 30,200 900 Climbing Atlanta Center
09:19AM 33.4642 -84.2978 143° Southeast 471 542 31,200 960 Climbing Atlanta Center
09:20AM 33.3536 -84.2081 146° Southeast 481 554 32,200 1,320 Climbing Atlanta Center
09:21AM 33.2389 -84.1083 144° Southeast 486 559 33,900 1,440 Climbing Atlanta Center
09:22AM 33.3293 -84.1719 148° Southeast  Level FlightAware Approximate
09:22AM 33.1347 -84.0164 144° Southeast 475 547 35,100  Level Atlanta Center
09:23AM 33.0303 -83.9297 145° Southeast 470 541 36,000 420 Climbing Atlanta Center
09:24AM 32.9258 -83.8408 144° Southeast 465 535 36,000  Level Atlanta Center
09:25AM 32.8233 -83.7594 146° Southeast 465 535 36,000  Level Atlanta Center
09:26AM 32.7167 -83.6686 144° Southeast 465 535 36,000  Level Atlanta Center
09:27AM 32.6181 -83.5753 141° Southeast 465 535 36,000  Level Atlanta Center
09:28AM 32.5197 -83.4772 140° Southeast 465 535 36,000  Level Atlanta Center
09:29AM 32.4231 -83.3819 140° Southeast 459 528 36,000  Level Atlanta Center
09:30AM 32.3267 -83.2842 139° Southeast 454 522 36,000  Level Atlanta Center
09:31AM 32.2278 -83.1869 140° Southeast 454 522 36,000  Level Atlanta Center
09:32AM 32.1333 -83.0897 139° Southeast 454 522 36,000  Level Atlanta Center
09:36AM 31.7906 -82.7581 141° Southeast 447 514 36,000  Level Jacksonville Center
09:37AM 31.6842 -82.6825 149° Southeast 447 514 36,000  Level Jacksonville Center
09:38AM 31.5589 -82.6633 173° South 438 504 36,000  Level Jacksonville Center
09:39AM 31.4356 -82.6467 173° South 443 510 36,000  Level Jacksonville Center
09:40AM 31.3081 -82.6275 173° South 450 518 36,000  Level Jacksonville Center
09:41AM 31.1869 -82.6108 173° South 456 525 36,000 -180 Level Jacksonville Center
09:47AM 30.4021 -82.4836 173° South 443 510 34,900 -480 Descending FlightAware ADS-B (KMCO)
09:49AM 30.1593 -82.4460 172° South 461 531 32,400 -1,320 Descending FlightAware ADS-B (KMCO)
09:50AM 30.0685 -82.4320 172° South 465 535 31,500 -1,320 Descending FlightAware ADS-B (KMCO)
09:51AM 29.9393 -82.4121 173° South 465 535 30,200 -1,140 Descending FlightAware ADS-B (KMCO)
09:51AM 29.8936 -82.4050 173° South 453 521 29,600 -960 Descending FlightAware ADS-B (KMCO)
09:52AM 29.7293 -82.3799 172° South 447 514 28,600 -1,200 Descending FlightAware ADS-B (KMCO)
09:54AM 29.5943 -82.3593 173° South 439 505 27,200 -1,500 Descending FlightAware ADS-B (KMCO)
09:54AM 29.5442 -82.3522 174° South 438 504 26,200 -2,160 Descending FlightAware ADS-B (KMCO)
09:55AM 29.4168 -82.3377 174° South 420 483 24,000 -2,220 Descending FlightAware ADS-B (KMCO)
09:56AM 29.3312 -82.3275 174° South 407 468 22,400 -1,980 Descending FlightAware ADS-B (KMCO)
09:58AM 29.0462 -82.2935 174° South 373 429 17,300 -1,500 Descending FlightAware ADS-B (KMCO)
10:03AM 28.5859 -82.2550 179° South 302 348 11,200 -1,260 Descending FlightAware ADS-B (KMCO)
10:04AM 28.5000 -82.2500 179° South 300 345 10,000 -660 Descending Tampa TRACON
10:05AM 28.4167 -82.2500 180° South 297 342 10,000  Level Tampa TRACON
10:06AM 28.3833 -82.3333 246° West 292 336 10,000  Level Tampa TRACON
10:07AM 28.3833 -82.4000 270° West 295 339 10,000 -240 Level Tampa TRACON
10:08AM 28.3728 -82.4528 257° West 294 338 9,700 -1,020 Descending Miami Center
10:09AM 28.3661 -82.5436 265° West 294 338 8,500 -1,200 Descending Miami Center
10:09AM 28.3500 -82.6000 252° West 288 331 7,800 -1,140 Descending Tampa TRACON
10:11AM 28.2958 -82.6983 238° Southwest 286 329 6,200 -1,140 Descending Miami Center
10:12AM 28.2500 -82.7333 214° Southwest 276 318 5,400 -1,200 Descending Tampa TRACON
10:13AM 28.1167 -82.7167 174° South 257 296 3,200 -1,140 Descending Tampa TRACON
10:14AM 28.0500 -82.7167 180° South 217 250 2,100 -900 Descending Tampa TRACON
10:16AM 27.9719 -82.7003 169° South 197 227 900 -720 Descending Miami Center
10:17AM 27.9361 -82.6925 169° South 160 184 300 -600 Descending Miami Center
10:19AM 27.9100 -82.6875 170° South  Level Estimated
10:26AM 27.9100 -82.6875 North  Level Estimated
10:27AM 27.9100 -82.6875 170° South  Level Estimated